sensor_id;sensor_type;location;lat;lon;timestamp;P1;durP1;ratioP1;P2;durP2;ratioP2
17261;SDS011;9873;52.236;21.002;2023-03-14T00:07:23;9.23;;;5.50;;
17261;SDS011;9873;52.236;21.002;2023-03-14T00:17:29;9.32;;;5.72;;
17261;SDS011;9873;52.236;21.002;2023-03-14T00:27:31;13.23;;;5.95;;
17261;SDS011;9873;52.236;21.002;2023-03-14T00:37:38;12.45;;;5.85;;
17261;SDS011;9873;52.236;21.002;2023-03-14T00:47:41;11.02;;;5.70;;
17261;SDS011;9873;52.236;21.002;2023-03-14T00:57:47;10.70;;;6.35;;
17261;SDS011;9873;52.236;21.002;2023-03-14T01:07:53;11.07;;;6.30;;
17261;SDS011;9873;52.236;21.002;2023-03-14T01:18:00;10.95;;;5.82;;
17261;SDS011;9873;52.236;21.002;2023-03-14T01:28:04;8.43;;;5.80;;
17261;SDS011;9873;52.236;21.002;2023-03-14T01:38:09;8.83;;;5.10;;
17261;SDS011;9873;52.236;21.002;2023-03-14T01:48:15;8.50;;;5.27;;
17261;SDS011;9873;52.236;21.002;2023-03-14T01:58:18;10.00;;;5.80;;
17261;SDS011;9873;52.236;21.002;2023-03-14T02:08:24;9.53;;;5.20;;
17261;SDS011;9873;52.236;21.002;2023-03-14T02:18:32;9.30;;;5.67;;
17261;SDS011;9873;52.236;21.002;2023-03-14T02:29:09;8.43;;;5.60;;
17261;SDS011;9873;52.236;21.002;2023-03-14T02:39:15;8.90;;;5.20;;
17261;SDS011;9873;52.236;21.002;2023-03-14T02:49:25;9.50;;;4.70;;
17261;SDS011;9873;52.236;21.002;2023-03-14T02:59:29;8.50;;;5.55;;
17261;SDS011;9873;52.236;21.002;2023-03-14T03:09:35;9.53;;;5.47;;
17261;SDS011;9873;52.236;21.002;2023-03-14T03:19:37;9.77;;;4.47;;
17261;SDS011;9873;52.236;21.002;2023-03-14T03:29:42;9.57;;;4.47;;
17261;SDS011;9873;52.236;21.002;2023-03-14T03:39:44;7.70;;;4.70;;
17261;SDS011;9873;52.236;21.002;2023-03-14T03:49:49;7.30;;;4.07;;
17261;SDS011;9873;52.236;21.002;2023-03-14T03:59:51;5.37;;;4.23;;
17261;SDS011;9873;52.236;21.002;2023-03-14T04:09:57;6.40;;;4.17;;
17261;SDS011;9873;52.236;21.002;2023-03-14T04:20:12;7.53;;;3.90;;
17261;SDS011;9873;52.236;21.002;2023-03-14T04:30:21;7.43;;;3.80;;
17261;SDS011;9873;52.236;21.002;2023-03-14T04:40:41;5.70;;;3.63;;
17261;SDS011;9873;52.236;21.002;2023-03-14T04:50:47;5.77;;;3.87;;
17261;SDS011;9873;52.236;21.002;2023-03-14T05:00:52;6.17;;;3.63;;
17261;SDS011;9873;52.236;21.002;2023-03-14T05:11:11;8.13;;;3.67;;
17261;SDS011;9873;52.236;21.002;2023-03-14T05:21:48;6.03;;;3.23;;
17261;SDS011;9873;52.236;21.002;2023-03-14T05:32:11;4.03;;;3.20;;
17261;SDS011;9873;52.236;21.002;2023-03-14T05:42:46;5.60;;;3.07;;
17261;SDS011;9873;52.236;21.002;2023-03-14T05:53:14;5.93;;;3.10;;
17261;SDS011;9873;52.236;21.002;2023-03-14T06:03:43;5.22;;;3.55;;
17261;SDS011;9873;52.236;21.002;2023-03-14T06:13:45;5.70;;;3.33;;
17261;SDS011;9873;52.236;21.002;2023-03-14T06:23:51;5.75;;;3.40;;
17261;SDS011;9873;52.236;21.002;2023-03-14T06:33:58;5.88;;;3.60;;
17261;SDS011;9873;52.236;21.002;2023-03-14T06:44:04;4.80;;;3.50;;
17261;SDS011;9873;52.236;21.002;2023-03-14T06:54:07;6.00;;;3.88;;
17261;SDS011;9873;52.236;21.002;2023-03-14T07:04:17;5.32;;;3.83;;
17261;SDS011;9873;52.236;21.002;2023-03-14T07:14:22;4.40;;;3.10;;
17261;SDS011;9873;52.236;21.002;2023-03-14T07:24:30;8.52;;;3.50;;
17261;SDS011;9873;52.236;21.002;2023-03-14T07:34:36;5.07;;;3.03;;
17261;SDS011;9873;52.236;21.002;2023-03-14T07:44:39;4.88;;;3.42;;
17261;SDS011;9873;52.236;21.002;2023-03-14T07:54:46;4.75;;;3.05;;
17261;SDS011;9873;52.236;21.002;2023-03-14T08:04:53;5.47;;;3.63;;
17261;SDS011;9873;52.236;21.002;2023-03-14T08:14:58;6.57;;;3.60;;
17261;SDS011;9873;52.236;21.002;2023-03-14T08:25:06;6.15;;;3.00;;
17261;SDS011;9873;52.236;21.002;2023-03-14T08:35:13;6.78;;;4.30;;
17261;SDS011;9873;52.236;21.002;2023-03-14T08:45:16;6.00;;;3.38;;
17261;SDS011;9873;52.236;21.002;2023-03-14T08:55:21;5.45;;;3.05;;
17261;SDS011;9873;52.236;21.002;2023-03-14T09:05:23;5.10;;;3.22;;
17261;SDS011;9873;52.236;21.002;2023-03-14T09:15:28;4.75;;;2.75;;
17261;SDS011;9873;52.236;21.002;2023-03-14T09:25:30;5.05;;;3.50;;
17261;SDS011;9873;52.236;21.002;2023-03-14T09:35:33;5.20;;;3.30;;
17261;SDS011;9873;52.236;21.002;2023-03-14T09:45:39;4.43;;;3.25;;
17261;SDS011;9873;52.236;21.002;2023-03-14T09:55:42;4.32;;;3.03;;
17261;SDS011;9873;52.236;21.002;2023-03-14T10:05:47;6.28;;;2.80;;
17261;SDS011;9873;52.236;21.002;2023-03-14T10:15:54;6.75;;;3.03;;
17261;SDS011;9873;52.236;21.002;2023-03-14T10:26:07;4.93;;;3.42;;
17261;SDS011;9873;52.236;21.002;2023-03-14T10:36:50;5.35;;;2.63;;
17261;SDS011;9873;52.236;21.002;2023-03-14T10:46:45;4.13;;;2.72;;
17261;SDS011;9873;52.236;21.002;2023-03-14T10:57:01;7.80;;;3.38;;
17261;SDS011;9873;52.236;21.002;2023-03-14T11:17:43;6.63;;;3.03;;
17261;SDS011;9873;52.236;21.002;2023-03-14T11:38:11;4.18;;;2.90;;
17261;SDS011;9873;52.236;21.002;2023-03-14T11:58:24;6.50;;;3.20;;
17261;SDS011;9873;52.236;21.002;2023-03-14T12:18:47;5.95;;;3.45;;
17261;SDS011;9873;52.236;21.002;2023-03-14T12:28:50;4.63;;;3.30;;
17261;SDS011;9873;52.236;21.002;2023-03-14T12:38:58;6.40;;;3.17;;
17261;SDS011;9873;52.236;21.002;2023-03-14T12:49:08;8.73;;;4.07;;
17261;SDS011;9873;52.236;21.002;2023-03-14T13:09:59;6.93;;;3.90;;
17261;SDS011;9873;52.236;21.002;2023-03-14T13:20:22;9.10;;;4.82;;
17261;SDS011;9873;52.236;21.002;2023-03-14T13:30:44;9.98;;;4.40;;
17261;SDS011;9873;52.236;21.002;2023-03-14T13:40:53;7.82;;;4.32;;
17261;SDS011;9873;52.236;21.002;2023-03-14T13:51:09;6.70;;;4.60;;
17261;SDS011;9873;52.236;21.002;2023-03-14T14:11:35;14.82;;;5.65;;
17261;SDS011;9873;52.236;21.002;2023-03-14T14:21:54;9.60;;;5.00;;
17261;SDS011;9873;52.236;21.002;2023-03-14T14:32:14;7.78;;;4.90;;
17261;SDS011;9873;52.236;21.002;2023-03-14T14:42:18;9.88;;;5.40;;
17261;SDS011;9873;52.236;21.002;2023-03-14T14:52:34;6.60;;;4.85;;
17261;SDS011;9873;52.236;21.002;2023-03-14T15:02:46;7.40;;;4.68;;
17261;SDS011;9873;52.236;21.002;2023-03-14T15:12:53;10.52;;;5.30;;
17261;SDS011;9873;52.236;21.002;2023-03-14T15:22:57;8.13;;;4.72;;
17261;SDS011;9873;52.236;21.002;2023-03-14T15:33:04;6.32;;;4.85;;
17261;SDS011;9873;52.236;21.002;2023-03-14T15:43:10;9.20;;;4.75;;
17261;SDS011;9873;52.236;21.002;2023-03-14T15:53:15;7.78;;;4.95;;
17261;SDS011;9873;52.236;21.002;2023-03-14T16:03:21;8.25;;;5.32;;
17261;SDS011;9873;52.236;21.002;2023-03-14T16:13:26;9.95;;;5.60;;
17261;SDS011;9873;52.236;21.002;2023-03-14T16:23:35;9.90;;;5.63;;
17261;SDS011;9873;52.236;21.002;2023-03-14T16:33:40;8.27;;;5.47;;
17261;SDS011;9873;52.236;21.002;2023-03-14T16:43:47;8.32;;;5.25;;
17261;SDS011;9873;52.236;21.002;2023-03-14T16:53:53;10.88;;;5.93;;
17261;SDS011;9873;52.236;21.002;2023-03-14T17:03:57;7.60;;;5.55;;
17261;SDS011;9873;52.236;21.002;2023-03-14T17:13:59;10.70;;;6.47;;
17261;SDS011;9873;52.236;21.002;2023-03-14T17:24:06;11.55;;;6.80;;
17261;SDS011;9873;52.236;21.002;2023-03-14T17:34:13;13.32;;;6.57;;
17261;SDS011;9873;52.236;21.002;2023-03-14T17:44:20;10.13;;;7.05;;
17261;SDS011;9873;52.236;21.002;2023-03-14T17:54:23;11.20;;;6.35;;
17261;SDS011;9873;52.236;21.002;2023-03-14T18:04:28;10.82;;;6.20;;
17261;SDS011;9873;52.236;21.002;2023-03-14T18:14:35;14.00;;;6.60;;
17261;SDS011;9873;52.236;21.002;2023-03-14T18:24:40;9.80;;;6.00;;
17261;SDS011;9873;52.236;21.002;2023-03-14T18:34:49;7.60;;;4.95;;
17261;SDS011;9873;52.236;21.002;2023-03-14T18:44:52;8.30;;;5.47;;
17261;SDS011;9873;52.236;21.002;2023-03-14T18:55:04;8.50;;;4.93;;
17261;SDS011;9873;52.236;21.002;2023-03-14T19:05:11;7.55;;;5.00;;
17261;SDS011;9873;52.236;21.002;2023-03-14T19:15:18;8.43;;;5.90;;
17261;SDS011;9873;52.236;21.002;2023-03-14T19:25:20;8.98;;;5.72;;
17261;SDS011;9873;52.236;21.002;2023-03-14T19:35:23;11.82;;;6.00;;
17261;SDS011;9873;52.236;21.002;2023-03-14T19:45:25;8.68;;;5.85;;
17261;SDS011;9873;52.236;21.002;2023-03-14T19:55:34;8.68;;;4.65;;
17261;SDS011;9873;52.236;21.002;2023-03-14T20:05:39;8.60;;;5.40;;
17261;SDS011;9873;52.236;21.002;2023-03-14T20:15:48;10.20;;;5.78;;
17261;SDS011;9873;52.236;21.002;2023-03-14T20:25:56;11.07;;;6.40;;
17261;SDS011;9873;52.236;21.002;2023-03-14T20:35:59;12.95;;;6.40;;
17261;SDS011;9873;52.236;21.002;2023-03-14T20:46:06;10.38;;;6.55;;
17261;SDS011;9873;52.236;21.002;2023-03-14T20:56:14;9.52;;;5.78;;
17261;SDS011;9873;52.236;21.002;2023-03-14T21:06:21;11.90;;;6.68;;
17261;SDS011;9873;52.236;21.002;2023-03-14T21:16:26;10.57;;;6.65;;
17261;SDS011;9873;52.236;21.002;2023-03-14T21:26:31;10.63;;;6.47;;
17261;SDS011;9873;52.236;21.002;2023-03-14T21:36:35;10.27;;;6.43;;
17261;SDS011;9873;52.236;21.002;2023-03-14T21:46:37;9.88;;;6.30;;
17261;SDS011;9873;52.236;21.002;2023-03-14T21:56:44;11.88;;;7.55;;
17261;SDS011;9873;52.236;21.002;2023-03-14T22:06:49;12.65;;;7.53;;
17261;SDS011;9873;52.236;21.002;2023-03-14T22:16:53;11.50;;;7.93;;
17261;SDS011;9873;52.236;21.002;2023-03-14T22:26:58;8.40;;;5.93;;
17261;SDS011;9873;52.236;21.002;2023-03-14T22:37:01;14.20;;;7.80;;
17261;SDS011;9873;52.236;21.002;2023-03-14T22:47:12;9.88;;;6.18;;
17261;SDS011;9873;52.236;21.002;2023-03-14T22:57:19;10.50;;;6.80;;
17261;SDS011;9873;52.236;21.002;2023-03-14T23:07:26;9.27;;;6.22;;
17261;SDS011;9873;52.236;21.002;2023-03-14T23:17:32;12.15;;;6.40;;
17261;SDS011;9873;52.236;21.002;2023-03-14T23:27:40;9.18;;;5.80;;
17261;SDS011;9873;52.236;21.002;2023-03-14T23:37:49;12.38;;;6.85;;
17261;SDS011;9873;52.236;21.002;2023-03-14T23:47:55;12.02;;;6.57;;
17261;SDS011;9873;52.236;21.002;2023-03-14T23:58:00;12.30;;;6.97;;
